Terminal Aerodrome Forecast
Issued by NWS Knoxville/Tri Cities, TN

Home | Current Version | Previous Version | Text Only | Print | Product List | Glossary On
Versions: 1 2 3 4 5 6 7 8 9 10 11 12 13 14 15 16 17 18 19 20 21 22 23 24
000
FTUS44 KMRX 281731
TAFTYS
TAF
KTYS 281731Z 2818/2918 22014G22KT P6SM SCT030 BKN050
     FM282100 23015KT P6SM VCTS BKN040CB
     FM282300 24012KT 4SM -SHRA BR OVC025
     FM290500 22004KT P6SM OVC022
     FM291000 23004KT 4SM BR OVC015
     FM291500 23007KT P6SM BKN025=

USA.gov is the U.S. government's official web portal to all federal, state and local government web resources and services.